Airfield :
LOGIN :

Register | Disclaimer

   EN    FR    IT 

 










Legend :    VFR   Marginal VFR   IFR   Intensive IFR   Very Intensive IFR
Visi :
Ceiling :
>= 8 km
>= 3000ft
5 to 8 km
1000 to 3000 ft
1500m to 5 km
500 to 1000 ft
800 to 1500m
200 to 500 ft
< 800m
< 200 ft
Symbols :   Thunderstorms  Fog  Heavy snow  Heavy precipitations  Wind > 20 kt
SIGMETs :     Misc.  Thunderstorms  Icing  Turbulence  Mountain Waves  Volcanic Ashes






- Airport Elevation : 355 ft
- IATA code : VBS


LIPO - Montichiari - Brescia

CURRENT METAR :
  • 290750Z AUTO 35003KT 9999 OVC096/// 06/04 Q1016

EXPIRED METARs :
  • 290720Z AUTO 36002KT 9999 FEW057/// BKN100/// 06/04 Q1016
  • 290650Z AUTO 28001KT 9999 FEW073/// BKN084/// 05/04 Q1016
  • 290620Z AUTO 36001KT 9999 BKN059/// 05/04 Q1016
  • 290550Z AUTO VRB01KT 9999 BKN100/// 06/03 Q1016
  • 290520Z AUTO VRB01KT 9999 BKN110/// 06/04 Q1016

TAF TAF LIPO
Valid from the 29 at 06:00 until the 30 at 06:00 UTC


290500Z 2906/3006 VRB05KT 7000 BKN040
TEMPO 2908/2914 RA



MET'MAP, your aeronautical weather chart ! - Copyright ORBIFLY December 2007 - Disclaimer

ORBIFLY MET'MAP TEAM :

Programming & Development : Alexandra Zaïnal
Original concept : Baudouin d'Aumeries
Technical & hardware support : Manuel Goepfert
Assistance : Marc-Olivier Méhu




SOURCES & CREDITS :

   NOAA